sensor_id;sensor_type;location;lat;lon;timestamp;pressure;altitude;pressure_sealevel;temperature;humidity
65760;BME280;52496;51.082;5.066;2023-01-27T00:01:16;102352.44;;;5.09;100.00
65760;BME280;52496;51.082;5.066;2023-01-27T00:03:47;102347.34;;;5.05;100.00
65760;BME280;52496;51.082;5.066;2023-01-27T00:06:17;102342.03;;;5.05;100.00
65760;BME280;52496;51.082;5.066;2023-01-27T00:08:48;102348.28;;;5.04;100.00
65760;BME280;52496;51.082;5.066;2023-01-27T00:11:19;102338.63;;;5.03;100.00
65760;BME280;52496;51.082;5.066;2023-01-27T00:14:08;102344.78;;;5.04;100.00
65760;BME280;52496;51.082;5.066;2023-01-27T00:16:38;102345.75;;;5.03;100.00
65760;BME280;52496;51.082;5.066;2023-01-27T00:19:09;102340.44;;;5.03;100.00
65760;BME280;52496;51.082;5.066;2023-01-27T00:21:39;102347.56;;;5.02;100.00
65760;BME280;52496;51.082;5.066;2023-01-27T00:24:46;102341.38;;;5.02;100.00
65760;BME280;52496;51.082;5.066;2023-01-27T00:27:16;102337.19;;;4.99;100.00
65760;BME280;52496;51.082;5.066;2023-01-27T00:29:47;102340.78;;;4.98;100.00
65760;BME280;52496;51.082;5.066;2023-01-27T00:32:17;102340.91;;;4.97;100.00
65760;BME280;52496;51.082;5.066;2023-01-27T00:35:06;102341.97;;;4.94;100.00
65760;BME280;52496;51.082;5.066;2023-01-27T00:37:37;102349.06;;;4.94;100.00
65760;BME280;52496;51.082;5.066;2023-01-27T00:40:09;102335.91;;;4.92;100.00
65760;BME280;52496;51.082;5.066;2023-01-27T00:42:40;102340.38;;;4.92;100.00
65760;BME280;52496;51.082;5.066;2023-01-27T00:45:10;102327.25;;;4.90;100.00
65760;BME280;52496;51.082;5.066;2023-01-27T00:47:59;102336.13;;;4.89;100.00
65760;BME280;52496;51.082;5.066;2023-01-27T00:50:30;102330.97;;;4.88;100.00
65760;BME280;52496;51.082;5.066;2023-01-27T00:53:00;102334.44;;;4.88;100.00
65760;BME280;52496;51.082;5.066;2023-01-27T00:55:32;102338.06;;;4.87;100.00
65760;BME280;52496;51.082;5.066;2023-01-27T00:58:02;102339.84;;;4.87;100.00
65760;BME280;52496;51.082;5.066;2023-01-27T01:00:33;102335.50;;;4.86;100.00
65760;BME280;52496;51.082;5.066;2023-01-27T01:03:03;102340.72;;;4.87;100.00
65760;BME280;52496;51.082;5.066;2023-01-27T01:05:34;102336.34;;;4.86;100.00
65760;BME280;52496;51.082;5.066;2023-01-27T01:08:05;102332.03;;;4.85;100.00
65760;BME280;52496;51.082;5.066;2023-01-27T01:10:38;102338.28;;;4.84;100.00
65760;BME280;52496;51.082;5.066;2023-01-27T01:13:10;102333.94;;;4.83;100.00
65760;BME280;52496;51.082;5.066;2023-01-27T01:15:41;102336.56;;;4.83;100.00
65760;BME280;52496;51.082;5.066;2023-01-27T01:18:11;102336.56;;;4.83;100.00
65760;BME280;52496;51.082;5.066;2023-01-27T01:20:43;102340.19;;;4.82;100.00
65760;BME280;52496;51.082;5.066;2023-01-27T01:23:15;102343.81;;;4.81;100.00
65760;BME280;52496;51.082;5.066;2023-01-27T01:25:53;102347.41;;;4.80;100.00
65760;BME280;52496;51.082;5.066;2023-01-27T01:28:24;102349.22;;;4.79;100.00
65760;BME280;52496;51.082;5.066;2023-01-27T01:30:55;102345.59;;;4.80;100.00
65760;BME280;52496;51.082;5.066;2023-01-27T01:33:26;102344.88;;;4.78;100.00
65760;BME280;52496;51.082;5.066;2023-01-27T01:36:01;102340.41;;;4.79;100.00
65760;BME280;52496;51.082;5.066;2023-01-27T01:38:32;102352.06;;;4.76;100.00
65760;BME280;52496;51.082;5.066;2023-01-27T01:41:03;102354.84;;;4.75;100.00
65760;BME280;52496;51.082;5.066;2023-01-27T01:43:34;102352.19;;;4.75;100.00
65760;BME280;52496;51.082;5.066;2023-01-27T01:46:07;102354.94;;;4.73;100.00
65760;BME280;52496;51.082;5.066;2023-01-27T01:48:54;102357.59;;;4.73;100.00
65760;BME280;52496;51.082;5.066;2023-01-27T01:51:34;102355.06;;;4.72;100.00
65760;BME280;52496;51.082;5.066;2023-01-27T01:54:11;102352.63;;;4.69;100.00
65760;BME280;52496;51.082;5.066;2023-01-27T01:56:49;102353.56;;;4.68;100.00
65760;BME280;52496;51.082;5.066;2023-01-27T01:59:25;102348.41;;;4.66;100.00
65760;BME280;52496;51.082;5.066;2023-01-27T02:01:59;102356.34;;;4.66;100.00
65760;BME280;52496;51.082;5.066;2023-01-27T02:04:35;102349.34;;;4.65;100.00
65760;BME280;52496;51.082;5.066;2023-01-27T02:07:16;102345.84;;;4.65;100.00
65760;BME280;52496;51.082;5.066;2023-01-27T02:09:47;102357.41;;;4.64;100.00
65760;BME280;52496;51.082;5.066;2023-01-27T02:12:18;102355.72;;;4.63;100.00
65760;BME280;52496;51.082;5.066;2023-01-27T02:14:48;102359.22;;;4.63;100.00
65760;BME280;52496;51.082;5.066;2023-01-27T02:17:19;102361.88;;;4.63;100.00
65760;BME280;52496;51.082;5.066;2023-01-27T02:20:08;102361.13;;;4.61;100.00
65760;BME280;52496;51.082;5.066;2023-01-27T02:25:44;102364.81;;;4.58;100.00
65760;BME280;52496;51.082;5.066;2023-01-27T02:28:16;102353.47;;;4.56;100.00
65760;BME280;52496;51.082;5.066;2023-01-27T02:30:47;102357.22;;;4.54;100.00
65760;BME280;52496;51.082;5.066;2023-01-27T02:33:18;102366.94;;;4.53;100.00
65760;BME280;52496;51.082;5.066;2023-01-27T02:35:58;102358.28;;;4.51;100.00
65760;BME280;52496;51.082;5.066;2023-01-27T02:38:34;102355.72;;;4.50;100.00
65760;BME280;52496;51.082;5.066;2023-01-27T02:41:13;102354.88;;;4.49;100.00
65760;BME280;52496;51.082;5.066;2023-01-27T02:43:47;102356.78;;;4.47;100.00
65760;BME280;52496;51.082;5.066;2023-01-27T02:46:18;102353.41;;;4.45;100.00
65760;BME280;52496;51.082;5.066;2023-01-27T02:48:48;102358.72;;;4.45;100.00
65760;BME280;52496;51.082;5.066;2023-01-27T02:51:19;102361.44;;;4.44;100.00
65760;BME280;52496;51.082;5.066;2023-01-27T02:53:50;102358.91;;;4.42;100.00
65760;BME280;52496;51.082;5.066;2023-01-27T02:56:20;102359.97;;;4.40;100.00
65760;BME280;52496;51.082;5.066;2023-01-27T02:58:51;102372.38;;;4.39;100.00
65760;BME280;52496;51.082;5.066;2023-01-27T03:01:22;102362.72;;;4.38;100.00
65760;BME280;52496;51.082;5.066;2023-01-27T03:03:53;102376.94;;;4.37;100.00
65760;BME280;52496;51.082;5.066;2023-01-27T03:06:24;102372.59;;;4.36;100.00
65760;BME280;52496;51.082;5.066;2023-01-27T03:08:55;102370.88;;;4.35;100.00
65760;BME280;52496;51.082;5.066;2023-01-27T03:11:25;102382.44;;;4.34;100.00
65760;BME280;52496;51.082;5.066;2023-01-27T03:14:14;102379.91;;;4.32;100.00
65760;BME280;52496;51.082;5.066;2023-01-27T03:16:45;102382.66;;;4.31;100.00
65760;BME280;52496;51.082;5.066;2023-01-27T03:19:35;102380.13;;;4.29;100.00
65760;BME280;52496;51.082;5.066;2023-01-27T03:22:05;102378.53;;;4.27;100.00
65760;BME280;52496;51.082;5.066;2023-01-27T03:24:36;102380.34;;;4.26;100.00
65760;BME280;52496;51.082;5.066;2023-01-27T03:27:06;102389.13;;;4.27;100.00
65760;BME280;52496;51.082;5.066;2023-01-27T03:29:37;102386.69;;;4.24;100.00
65760;BME280;52496;51.082;5.066;2023-01-27T03:32:28;102379.66;;;4.23;100.00
65760;BME280;52496;51.082;5.066;2023-01-27T03:34:59;102385.84;;;4.23;100.00
65760;BME280;52496;51.082;5.066;2023-01-27T03:37:30;102387.53;;;4.24;100.00
65760;BME280;52496;51.082;5.066;2023-01-27T03:40:21;102387.59;;;4.23;100.00
65760;BME280;52496;51.082;5.066;2023-01-27T03:43:10;102392.19;;;4.21;100.00
65760;BME280;52496;51.082;5.066;2023-01-27T03:45:59;102396.63;;;4.20;100.00
65760;BME280;52496;51.082;5.066;2023-01-27T03:48:50;102401.06;;;4.20;100.00
65760;BME280;52496;51.082;5.066;2023-01-27T03:51:23;102401.06;;;4.20;100.00
65760;BME280;52496;51.082;5.066;2023-01-27T03:53:54;102404.66;;;4.19;100.00
65760;BME280;52496;51.082;5.066;2023-01-27T03:56:39;102401.28;;;4.17;100.00
65760;BME280;52496;51.082;5.066;2023-01-27T03:59:10;102400.44;;;4.16;100.00
65760;BME280;52496;51.082;5.066;2023-01-27T04:01:40;102401.28;;;4.17;100.00
65760;BME280;52496;51.082;5.066;2023-01-27T04:04:12;102405.84;;;4.14;100.00
65760;BME280;52496;51.082;5.066;2023-01-27T04:07:02;102403.19;;;4.14;100.00
65760;BME280;52496;51.082;5.066;2023-01-27T04:09:35;102405.09;;;4.12;100.00
65760;BME280;52496;51.082;5.066;2023-01-27T04:12:08;102417.38;;;4.13;100.00
65760;BME280;52496;51.082;5.066;2023-01-27T04:14:39;102408.69;;;4.11;100.00
65760;BME280;52496;51.082;5.066;2023-01-27T04:17:15;102404.34;;;4.10;100.00
65760;BME280;52496;51.082;5.066;2023-01-27T04:19:46;102412.28;;;4.10;100.00
65760;BME280;52496;51.082;5.066;2023-01-27T04:22:17;102410.59;;;4.09;100.00
65760;BME280;52496;51.082;5.066;2023-01-27T04:24:47;102418.66;;;4.08;100.00
65760;BME280;52496;51.082;5.066;2023-01-27T04:27:19;102423.06;;;4.07;100.00
65760;BME280;52496;51.082;5.066;2023-01-27T04:29:50;102417.06;;;4.05;100.00
65760;BME280;52496;51.082;5.066;2023-01-27T04:32:21;102416.09;;;4.06;100.00
65760;BME280;52496;51.082;5.066;2023-01-27T04:34:51;102426.69;;;4.06;100.00
65760;BME280;52496;51.082;5.066;2023-01-27T04:37:22;102434.53;;;4.08;100.00
65760;BME280;52496;51.082;5.066;2023-01-27T04:39:52;102436.22;;;4.09;100.00
65760;BME280;52496;51.082;5.066;2023-01-27T04:42:23;102428.38;;;4.07;100.00
65760;BME280;52496;51.082;5.066;2023-01-27T04:44:53;102435.38;;;4.08;100.00
65760;BME280;52496;51.082;5.066;2023-01-27T04:47:24;102431.78;;;4.09;100.00
65760;BME280;52496;51.082;5.066;2023-01-27T04:49:54;102432.75;;;4.08;100.00
65760;BME280;52496;51.082;5.066;2023-01-27T04:52:25;102438.88;;;4.09;100.00
65760;BME280;52496;51.082;5.066;2023-01-27T04:54:55;102429.34;;;4.06;100.00
65760;BME280;52496;51.082;5.066;2023-01-27T04:57:26;102436.31;;;4.07;100.00
65760;BME280;52496;51.082;5.066;2023-01-27T04:59:57;102430.19;;;4.07;100.00
65760;BME280;52496;51.082;5.066;2023-01-27T05:02:27;102438.97;;;4.07;100.00
65760;BME280;52496;51.082;5.066;2023-01-27T05:04:58;102437.28;;;4.06;100.00
65760;BME280;52496;51.082;5.066;2023-01-27T05:07:29;102435.59;;;4.05;100.00
65760;BME280;52496;51.082;5.066;2023-01-27T05:09:59;102437.28;;;4.06;100.00
65760;BME280;52496;51.082;5.066;2023-01-27T05:12:30;102440.75;;;4.07;100.00
65760;BME280;52496;51.082;5.066;2023-01-27T05:15:01;102443.53;;;4.05;100.00
65760;BME280;52496;51.082;5.066;2023-01-27T05:17:32;102444.38;;;4.06;100.00
65760;BME280;52496;51.082;5.066;2023-01-27T05:20:03;102454.13;;;4.05;100.00
65760;BME280;52496;51.082;5.066;2023-01-27T05:22:33;102450.72;;;4.03;100.00
65760;BME280;52496;51.082;5.066;2023-01-27T05:25:04;102456.97;;;4.02;100.00
65760;BME280;52496;51.082;5.066;2023-01-27T05:27:35;102460.56;;;4.01;100.00
65760;BME280;52496;51.082;5.066;2023-01-27T05:30:06;102455.47;;;3.98;100.00
65760;BME280;52496;51.082;5.066;2023-01-27T05:32:37;102462.47;;;3.99;100.00
65760;BME280;52496;51.082;5.066;2023-01-27T05:35:08;102457.25;;;3.98;100.00
65760;BME280;52496;51.082;5.066;2023-01-27T05:37:38;102462.69;;;3.96;100.00
65760;BME280;52496;51.082;5.066;2023-01-27T05:40:09;102466.25;;;3.95;100.00
65760;BME280;52496;51.082;5.066;2023-01-27T05:42:40;102464.56;;;3.94;100.00
65760;BME280;52496;51.082;5.066;2023-01-27T05:45:11;102480.44;;;3.94;100.00
65760;BME280;52496;51.082;5.066;2023-01-27T05:47:41;102479.69;;;3.92;100.00
65760;BME280;52496;51.082;5.066;2023-01-27T05:50:12;102492.94;;;3.92;100.00
65760;BME280;52496;51.082;5.066;2023-01-27T05:52:42;102479.81;;;3.90;100.00
65760;BME280;52496;51.082;5.066;2023-01-27T05:55:13;102494.84;;;3.90;100.00
65760;BME280;52496;51.082;5.066;2023-01-27T05:57:44;102487.94;;;3.87;100.00
65760;BME280;52496;51.082;5.066;2023-01-27T06:00:14;102488.88;;;3.86;100.00
65760;BME280;52496;51.082;5.066;2023-01-27T06:02:45;102486.34;;;3.85;100.00
65760;BME280;52496;51.082;5.066;2023-01-27T06:05:16;102496.09;;;3.84;100.00
65760;BME280;52496;51.082;5.066;2023-01-27T06:07:46;102495.25;;;3.84;100.00
65760;BME280;52496;51.082;5.066;2023-01-27T06:10:17;102496.09;;;3.84;100.00
65760;BME280;52496;51.082;5.066;2023-01-27T06:12:47;102490.78;;;3.84;100.00
65760;BME280;52496;51.082;5.066;2023-01-27T06:15:18;102497.91;;;3.84;100.00
65760;BME280;52496;51.082;5.066;2023-01-27T06:17:48;102492.59;;;3.84;100.00
65760;BME280;52496;51.082;5.066;2023-01-27T06:20:19;102499.66;;;3.83;100.00
65760;BME280;52496;51.082;5.066;2023-01-27T06:22:50;102513.84;;;3.82;100.00
65760;BME280;52496;51.082;5.066;2023-01-27T06:25:20;102506.03;;;3.81;100.00
65760;BME280;52496;51.082;5.066;2023-01-27T06:27:55;102508.69;;;3.81;100.00
65760;BME280;52496;51.082;5.066;2023-01-27T06:30:25;102514.91;;;3.80;100.00
65760;BME280;52496;51.082;5.066;2023-01-27T06:32:56;102512.38;;;3.78;100.00
65760;BME280;52496;51.082;5.066;2023-01-27T06:35:26;102511.53;;;3.78;100.00
65760;BME280;52496;51.082;5.066;2023-01-27T06:37:57;102515.09;;;3.77;100.00
65760;BME280;52496;51.082;5.066;2023-01-27T06:40:30;102517.00;;;3.75;100.00
65760;BME280;52496;51.082;5.066;2023-01-27T06:43:01;102517.00;;;3.75;100.00
65760;BME280;52496;51.082;5.066;2023-01-27T06:45:32;102525.88;;;3.74;100.00
65760;BME280;52496;51.082;5.066;2023-01-27T06:48:03;102520.78;;;3.71;100.00
65760;BME280;52496;51.082;5.066;2023-01-27T06:50:33;102527.78;;;3.72;100.00
65760;BME280;52496;51.082;5.066;2023-01-27T06:53:05;102526.84;;;3.73;100.00
65760;BME280;52496;51.082;5.066;2023-01-27T06:55:37;102529.47;;;3.73;100.00
65760;BME280;52496;51.082;5.066;2023-01-27T06:58:11;102518.97;;;3.71;100.00
65760;BME280;52496;51.082;5.066;2023-01-27T07:00:42;102517.28;;;3.70;100.00
65760;BME280;52496;51.082;5.066;2023-01-27T07:03:13;102522.69;;;3.68;100.00
65760;BME280;52496;51.082;5.066;2023-01-27T07:05:44;102521.81;;;3.68;100.00
65760;BME280;52496;51.082;5.066;2023-01-27T07:08:14;102529.75;;;3.68;100.00
65760;BME280;52496;51.082;5.066;2023-01-27T07:10:45;102528.00;;;3.68;100.00
65760;BME280;52496;51.082;5.066;2023-01-27T07:13:17;102535.94;;;3.68;100.00
65760;BME280;52496;51.082;5.066;2023-01-27T07:16:06;102527.13;;;3.68;100.00
65760;BME280;52496;51.082;5.066;2023-01-27T07:18:36;102532.53;;;3.66;100.00
65760;BME280;52496;51.082;5.066;2023-01-27T07:21:07;102534.31;;;3.66;100.00
65760;BME280;52496;51.082;5.066;2023-01-27T07:23:37;102537.81;;;3.66;100.00
65760;BME280;52496;51.082;5.066;2023-01-27T07:26:08;102530.72;;;3.67;100.00
65760;BME280;52496;51.082;5.066;2023-01-27T07:28:38;102529.88;;;3.66;100.00
65760;BME280;52496;51.082;5.066;2023-01-27T07:31:09;102539.63;;;3.66;100.00
65760;BME280;52496;51.082;5.066;2023-01-27T07:33:40;102530.72;;;3.67;100.00
65760;BME280;52496;51.082;5.066;2023-01-27T07:36:10;102532.41;;;3.68;100.00
65760;BME280;52496;51.082;5.066;2023-01-27T07:38:41;102530.72;;;3.67;100.00
65760;BME280;52496;51.082;5.066;2023-01-27T07:41:11;102536.00;;;3.67;100.00
65760;BME280;52496;51.082;5.066;2023-01-27T07:43:42;102541.31;;;3.67;100.00
65760;BME280;52496;51.082;5.066;2023-01-27T07:46:12;102540.34;;;3.68;100.00
65760;BME280;52496;51.082;5.066;2023-01-27T07:48:43;102538.56;;;3.68;100.00
65760;BME280;52496;51.082;5.066;2023-01-27T07:51:14;102543.88;;;3.68;100.00
65760;BME280;52496;51.082;5.066;2023-01-27T07:53:45;102533.28;;;3.68;100.00
65760;BME280;52496;51.082;5.066;2023-01-27T07:56:16;102548.19;;;3.70;100.00
65760;BME280;52496;51.082;5.066;2023-01-27T07:58:46;102550.72;;;3.71;100.00
65760;BME280;52496;51.082;5.066;2023-01-27T08:01:17;102554.25;;;3.72;100.00
65760;BME280;52496;51.082;5.066;2023-01-27T08:03:47;102541.75;;;3.74;100.00
65760;BME280;52496;51.082;5.066;2023-01-27T08:06:18;102546.13;;;3.75;100.00
65760;BME280;52496;51.082;5.066;2023-01-27T08:08:49;102550.47;;;3.76;100.00
65760;BME280;52496;51.082;5.066;2023-01-27T08:11:19;102549.50;;;3.77;100.00
65760;BME280;52496;51.082;5.066;2023-01-27T08:13:50;102547.69;;;3.77;100.00
65760;BME280;52496;51.082;5.066;2023-01-27T08:16:21;102551.09;;;3.79;100.00
65760;BME280;52496;51.082;5.066;2023-01-27T08:18:52;102556.31;;;3.81;100.00
65760;BME280;52496;51.082;5.066;2023-01-27T08:21:23;102562.34;;;3.83;100.00
65760;BME280;52496;51.082;5.066;2023-01-27T08:23:54;102557.69;;;3.86;100.00
65760;BME280;52496;51.082;5.066;2023-01-27T08:26:25;102555.81;;;3.88;100.00
65760;BME280;52496;51.082;5.066;2023-01-27T08:28:56;102551.16;;;3.92;100.00
65760;BME280;52496;51.082;5.066;2023-01-27T08:31:27;102553.53;;;3.97;100.00
65760;BME280;52496;51.082;5.066;2023-01-27T08:33:58;102556.06;;;3.98;100.00
65760;BME280;52496;51.082;5.066;2023-01-27T08:36:28;102569.00;;;4.03;100.00
65760;BME280;52496;51.082;5.066;2023-01-27T08:38:59;102560.03;;;4.05;100.00
65760;BME280;52496;51.082;5.066;2023-01-27T08:41:29;102567.78;;;4.08;100.00
65760;BME280;52496;51.082;5.066;2023-01-27T08:44:00;102564.91;;;4.11;100.00
65760;BME280;52496;51.082;5.066;2023-01-27T08:46:30;102560.34;;;4.13;100.00
65760;BME280;52496;51.082;5.066;2023-01-27T08:49:01;102565.44;;;4.17;100.00
65760;BME280;52496;51.082;5.066;2023-01-27T08:51:31;102560.06;;;4.18;100.00
65760;BME280;52496;51.082;5.066;2023-01-27T08:54:02;102556.38;;;4.21;100.00
65760;BME280;52496;51.082;5.066;2023-01-27T08:56:33;102565.03;;;4.23;100.00
65760;BME280;52496;51.082;5.066;2023-01-27T08:59:04;102560.50;;;4.25;100.00
65760;BME280;52496;51.082;5.066;2023-01-27T09:01:34;102562.97;;;4.28;100.00
65760;BME280;52496;51.082;5.066;2023-01-27T09:04:05;102563.72;;;4.30;100.00
65760;BME280;52496;51.082;5.066;2023-01-27T09:06:36;102573.25;;;4.32;100.00
65760;BME280;52496;51.082;5.066;2023-01-27T09:09:06;102569.53;;;4.35;100.00
65760;BME280;52496;51.082;5.066;2023-01-27T09:11:42;102587.16;;;4.36;100.00
65760;BME280;52496;51.082;5.066;2023-01-27T09:14:13;102582.56;;;4.38;100.00
65760;BME280;52496;51.082;5.066;2023-01-27T09:16:44;102584.19;;;4.41;100.00
65760;BME280;52496;51.082;5.066;2023-01-27T09:19:15;102580.59;;;4.42;100.00
65760;BME280;52496;51.082;5.066;2023-01-27T09:21:45;102584.81;;;4.44;100.00
65760;BME280;52496;51.082;5.066;2023-01-27T09:24:16;102586.53;;;4.45;100.00
65760;BME280;52496;51.082;5.066;2023-01-27T09:26:47;102587.25;;;4.47;100.00
65760;BME280;52496;51.082;5.066;2023-01-27T09:29:17;102600.31;;;4.50;100.00
65760;BME280;52496;51.082;5.066;2023-01-27T09:31:48;102591.44;;;4.51;100.00
65760;BME280;52496;51.082;5.066;2023-01-27T09:34:19;102595.56;;;4.55;100.00
65760;BME280;52496;51.082;5.066;2023-01-27T09:37:07;102601.41;;;4.60;100.00
65760;BME280;52496;51.082;5.066;2023-01-27T09:39:45;102597.59;;;4.65;100.00
65760;BME280;52496;51.082;5.066;2023-01-27T09:42:58;102595.50;;;4.70;100.00
65760;BME280;52496;51.082;5.066;2023-01-27T09:51:42;102601.16;;;4.91;100.00
65760;BME280;52496;51.082;5.066;2023-01-27T10:00:07;102596.19;;;5.12;100.00
65760;BME280;52496;51.082;5.066;2023-01-27T10:06:02;102604.56;;;5.18;100.00
65760;BME280;52496;51.082;5.066;2023-01-27T10:09:17;102597.44;;;5.19;100.00
65760;BME280;52496;51.082;5.066;2023-01-27T10:12:21;102601.69;;;5.21;100.00
65760;BME280;52496;51.082;5.066;2023-01-27T10:15:09;102603.38;;;5.22;100.00
65760;BME280;52496;51.082;5.066;2023-01-27T10:23:30;102605.72;;;5.27;100.00
65760;BME280;52496;51.082;5.066;2023-01-27T10:27:04;102606.38;;;5.31;100.00
65760;BME280;52496;51.082;5.066;2023-01-27T10:29:09;102609.09;;;5.29;100.00
65760;BME280;52496;51.082;5.066;2023-01-27T10:32:29;102614.41;;;5.29;100.00
65760;BME280;52496;51.082;5.066;2023-01-27T10:34:49;102603.81;;;5.29;100.00
65760;BME280;52496;51.082;5.066;2023-01-27T10:49:04;102611.25;;;5.24;100.00
65760;BME280;52496;51.082;5.066;2023-01-27T10:51:46;102601.38;;;5.26;100.00
65760;BME280;52496;51.082;5.066;2023-01-27T10:54:59;102605.72;;;5.27;100.00
65760;BME280;52496;51.082;5.066;2023-01-27T11:00:48;102598.72;;;5.26;100.00
65760;BME280;52496;51.082;5.066;2023-01-27T11:03:38;102594.28;;;5.26;100.00
65760;BME280;52496;51.082;5.066;2023-01-27T11:06:13;102597.78;;;5.27;100.00
65760;BME280;52496;51.082;5.066;2023-01-27T11:08:49;102596.81;;;5.28;100.00
65760;BME280;52496;51.082;5.066;2023-01-27T11:11:24;102594.28;;;5.26;100.00
65760;BME280;52496;51.082;5.066;2023-01-27T11:14:21;102592.47;;;5.27;100.00
65760;BME280;52496;51.082;5.066;2023-01-27T11:22:34;102583.47;;;5.29;100.00
65760;BME280;52496;51.082;5.066;2023-01-27T11:25:38;102587.66;;;5.32;100.00
65760;BME280;52496;51.082;5.066;2023-01-27T11:31:01;102589.41;;;5.33;100.00
65760;BME280;52496;51.082;5.066;2023-01-27T11:36:15;102588.22;;;5.37;100.00
65760;BME280;52496;51.082;5.066;2023-01-27T11:38:45;102592.56;;;5.38;100.00
65760;BME280;52496;51.082;5.066;2023-01-27T11:41:16;102585.34;;;5.40;100.00
65760;BME280;52496;51.082;5.066;2023-01-27T11:43:47;102580.78;;;5.42;100.00
65760;BME280;52496;51.082;5.066;2023-01-27T11:46:21;102587.69;;;5.45;100.00
65760;BME280;52496;51.082;5.066;2023-01-27T11:48:56;102586.59;;;5.47;100.00
65760;BME280;52496;51.082;5.066;2023-01-27T11:51:35;102579.59;;;5.46;100.00
65760;BME280;52496;51.082;5.066;2023-01-27T11:54:19;102582.25;;;5.46;100.00
65760;BME280;52496;51.082;5.066;2023-01-27T11:56:51;102579.59;;;5.46;100.00
65760;BME280;52496;51.082;5.066;2023-01-27T11:59:22;102576.19;;;5.44;100.00
65760;BME280;52496;51.082;5.066;2023-01-27T12:02:01;102580.03;;;5.40;100.00
65760;BME280;52496;51.082;5.066;2023-01-27T12:04:49;102586.63;;;5.35;100.00
65760;BME280;52496;51.082;5.066;2023-01-27T12:07:34;102583.47;;;5.29;100.00
65760;BME280;52496;51.082;5.066;2023-01-27T12:12:55;102581.53;;;5.32;100.00
65760;BME280;52496;51.082;5.066;2023-01-27T12:15:28;102586.81;;;5.32;100.00
65760;BME280;52496;51.082;5.066;2023-01-27T12:18:19;102582.50;;;5.31;100.00
65760;BME280;52496;51.082;5.066;2023-01-27T12:20:58;102581.09;;;5.25;100.00
65760;BME280;52496;51.082;5.066;2023-01-27T12:23:36;102587.47;;;5.22;100.00
65760;BME280;52496;51.082;5.066;2023-01-27T12:26:10;102581.31;;;5.22;100.00
65760;BME280;52496;51.082;5.066;2023-01-27T12:28:48;102571.69;;;5.21;100.00
65760;BME280;52496;51.082;5.066;2023-01-27T12:31:30;102581.31;;;5.22;100.00
65760;BME280;52496;51.082;5.066;2023-01-27T12:36:52;102568.69;;;5.25;100.00
65760;BME280;52496;51.082;5.066;2023-01-27T12:45:37;102564.00;;;5.29;100.00
65760;BME280;52496;51.082;5.066;2023-01-27T12:53:24;102553.31;;;5.31;100.00
65760;BME280;52496;51.082;5.066;2023-01-27T12:58:55;102549.25;;;5.38;100.00
65760;BME280;52496;51.082;5.066;2023-01-27T13:01:29;102545.88;;;5.36;100.00
65760;BME280;52496;51.082;5.066;2023-01-27T13:04:21;102539.69;;;5.35;100.00
65760;BME280;52496;51.082;5.066;2023-01-27T13:07:11;102545.13;;;5.34;100.00
65760;BME280;52496;51.082;5.066;2023-01-27T13:12:25;102532.72;;;5.34;100.00
65760;BME280;52496;51.082;5.066;2023-01-27T13:15:07;102542.47;;;5.34;100.00
65760;BME280;52496;51.082;5.066;2023-01-27T13:17:53;102538.97;;;5.33;100.00
65760;BME280;52496;51.082;5.066;2023-01-27T13:20:31;102538.97;;;5.33;100.00
65760;BME280;52496;51.082;5.066;2023-01-27T13:23:14;102540.13;;;5.29;100.00
65760;BME280;52496;51.082;5.066;2023-01-27T13:29:01;102545.44;;;5.29;100.00
65760;BME280;52496;51.082;5.066;2023-01-27T13:34:40;102549.59;;;5.20;100.00
65760;BME280;52496;51.082;5.066;2023-01-27T13:37:27;102547.16;;;5.17;100.00
65760;BME280;52496;51.082;5.066;2023-01-27T13:40:02;102550.97;;;5.13;100.00
65760;BME280;52496;51.082;5.066;2023-01-27T13:45:44;102542.28;;;5.11;100.00
65760;BME280;52496;51.082;5.066;2023-01-27T13:48:28;102555.31;;;5.14;100.00
65760;BME280;52496;51.082;5.066;2023-01-27T13:53:44;102553.75;;;5.12;100.00
65760;BME280;52496;51.082;5.066;2023-01-27T14:01:52;102569.00;;;5.08;100.00
65760;BME280;52496;51.082;5.066;2023-01-27T14:10:57;102577.09;;;5.06;100.00
65760;BME280;52496;51.082;5.066;2023-01-27T14:13:48;102575.41;;;5.05;100.00
65760;BME280;52496;51.082;5.066;2023-01-27T14:19:20;102577.38;;;5.02;100.00
65760;BME280;52496;51.082;5.066;2023-01-27T14:24:39;102588.19;;;4.99;100.00
65760;BME280;52496;51.082;5.066;2023-01-27T14:27:17;102595.53;;;4.95;100.00
65760;BME280;52496;51.082;5.066;2023-01-27T14:29:57;102584.06;;;4.95;100.00
65760;BME280;52496;51.082;5.066;2023-01-27T14:33:08;102595.53;;;4.95;100.00
65760;BME280;52496;51.082;5.066;2023-01-27T14:36:20;102590.97;;;4.97;100.00
65760;BME280;52496;51.082;5.066;2023-01-27T14:44:46;102591.94;;;4.96;100.00
65760;BME280;52496;51.082;5.066;2023-01-27T14:47:57;102593.50;;;4.99;100.00
65760;BME280;52496;51.082;5.066;2023-01-27T14:50:44;102588.31;;;4.97;100.00
65760;BME280;52496;51.082;5.066;2023-01-27T14:56:19;102595.53;;;4.95;100.00
65760;BME280;52496;51.082;5.066;2023-01-27T15:10:26;102605.41;;;4.93;100.00
65760;BME280;52496;51.082;5.066;2023-01-27T15:13:23;102601.03;;;4.92;100.00
65760;BME280;52496;51.082;5.066;2023-01-27T15:16:26;102603.91;;;4.89;100.00
65760;BME280;52496;51.082;5.066;2023-01-27T15:25:01;102610.47;;;4.83;100.00
65760;BME280;52496;51.082;5.066;2023-01-27T15:27:38;102623.81;;;4.82;100.00
65760;BME280;52496;51.082;5.066;2023-01-27T15:30:29;102626.69;;;4.79;100.00
65760;BME280;52496;51.082;5.066;2023-01-27T15:33:00;102632.00;;;4.79;100.00
65760;BME280;52496;51.082;5.066;2023-01-27T15:35:33;102627.72;;;4.76;100.00
65760;BME280;52496;51.082;5.066;2023-01-27T15:41:13;102627.09;;;4.73;100.00
65760;BME280;52496;51.082;5.066;2023-01-27T15:47:00;102628.16;;;4.70;100.00